Time;durP1;ratioP1;P1;durP2;ratioP2;P2;SDS_P1;SDS_P2;PMS_P1;PMS_P2;Temp;Humidity;BMP_temperature;BMP_pressure;BME280_temperature;BME280_humidity;BME280_pressure;Samples;Min_cycle;Max_cycle;Signal;HPM_P1;HPM_P2
2023/09/02 00:00:30;;;;;;;5.10;2.95;;;14.20;99.90;;;;;;5000165;28;20076;-76
2023/09/02 00:02:56;;;;;;;5.00;3.03;;;14.20;99.90;;;;;;4986506;28;20042;-79
2023/09/02 00:05:22;;;;;;;6.00;2.65;;;14.20;99.90;;;;;;5000851;28;20041;-79
2023/09/02 00:07:47;;;;;;;5.90;2.92;;;14.20;99.90;;;;;;4985883;28;20785;-78
2023/09/02 00:10:13;;;;;;;3.85;2.50;;;14.20;99.90;;;;;;4973536;28;20133;-79
2023/09/02 00:12:39;;;;;;;6.28;3.00;;;14.20;99.90;;;;;;4982557;28;20120;-79
2023/09/02 00:15:06;;;;;;;4.22;2.72;;;14.20;99.90;;;;;;4984584;28;20559;-79
2023/09/02 00:17:32;;;;;;;4.05;2.30;;;14.20;99.90;;;;;;4984401;28;20104;-77
2023/09/02 00:19:58;;;;;;;3.33;2.30;;;14.20;99.90;;;;;;4983992;28;20066;-80
2023/09/02 00:22:23;;;;;;;3.97;2.78;;;14.20;99.90;;;;;;4983560;28;20126;-77
2023/09/02 00:24:49;;;;;;;3.65;2.58;;;14.10;99.90;;;;;;4971587;28;20049;-79
2023/09/02 00:27:14;;;;;;;3.80;2.28;;;14.10;99.90;;;;;;4983388;28;20042;-80
2023/09/02 00:29:40;;;;;;;3.97;2.00;;;14.10;99.90;;;;;;4984159;28;20042;-80
2023/09/02 00:32:06;;;;;;;5.68;3.22;;;14.00;99.90;;;;;;4984454;28;20050;-80
2023/09/02 00:34:31;;;;;;;5.03;3.05;;;14.00;99.90;;;;;;4984108;28;20053;-80
2023/09/02 00:36:57;;;;;;;4.28;2.92;;;14.00;99.90;;;;;;4983398;28;20085;-79
2023/09/02 00:39:23;;;;;;;5.65;3.08;;;14.00;99.90;;;;;;4984075;28;20069;-78
2023/09/02 00:41:51;;;;;;;4.82;3.17;;;14.00;99.90;;;;;;4983068;28;20069;-80
2023/09/02 00:44:17;;;;;;;6.97;3.22;;;13.90;99.90;;;;;;4967200;28;20092;-78
2023/09/02 00:46:43;;;;;;;5.30;2.92;;;14.00;99.90;;;;;;4984042;28;20046;-76
2023/09/02 00:49:09;;;;;;;4.82;3.30;;;13.90;99.90;;;;;;4965484;28;20053;-78
2023/09/02 00:51:35;;;;;;;4.97;3.42;;;13.90;99.90;;;;;;4984522;28;20046;-77
2023/09/02 00:54:00;;;;;;;5.93;3.47;;;13.90;99.90;;;;;;4967074;28;20763;-79
2023/09/02 00:56:28;;;;;;;5.47;3.38;;;13.90;99.90;;;;;;4983078;28;20082;-78
2023/09/02 00:58:58;;;;;;;4.70;2.95;;;13.90;99.90;;;;;;4983666;28;20035;-80
2023/09/02 01:01:24;;;;;;;4.47;2.47;;;13.90;99.90;;;;;;4972695;28;20412;-81
2023/09/02 01:03:50;;;;;;;3.92;2.58;;;13.90;99.90;;;;;;4983713;28;20053;-80
2023/09/02 01:06:16;;;;;;;4.50;2.35;;;13.90;99.90;;;;;;4980993;28;20114;-79
2023/09/02 01:08:42;;;;;;;4.82;2.60;;;13.80;99.90;;;;;;4967913;28;20054;-80
2023/09/02 01:11:07;;;;;;;4.35;2.60;;;13.80;99.90;;;;;;4982564;28;20087;-77
2023/09/02 01:13:33;;;;;;;5.72;3.08;;;13.80;99.90;;;;;;5003542;28;20108;-80
2023/09/02 01:15:58;;;;;;;4.65;2.92;;;13.80;99.90;;;;;;5002215;28;20505;-78
2023/09/02 01:18:25;;;;;;;5.65;3.00;;;13.80;99.90;;;;;;5001756;28;20049;-79
2023/09/02 01:20:59;;;;;;;4.80;3.60;;;13.70;99.90;;;;;;5002214;28;20512;-79
2023/09/02 01:23:57;;;;;;;4.82;3.00;;;13.80;99.90;;;;;;5002979;28;20125;-80
2023/09/02 01:27:02;;;;;;;7.10;3.10;;;13.70;99.90;;;;;;4999518;28;20058;-80
2023/09/02 01:29:31;;;;;;;4.97;3.13;;;13.70;99.90;;;;;;5003028;28;20641;-76
2023/09/02 01:32:01;;;;;;;5.35;3.03;;;13.70;99.90;;;;;;5003802;28;20042;-78
2023/09/02 01:34:30;;;;;;;9.98;3.13;;;13.70;99.90;;;;;;5006750;28;20042;-79
2023/09/02 01:36:57;;;;;;;5.10;3.13;;;13.70;99.90;;;;;;5007268;28;20034;-80
2023/09/02 01:39:25;;;;;;;6.68;3.20;;;13.70;99.90;;;;;;5005665;28;20089;-79
2023/09/02 01:41:52;;;;;;;5.55;3.78;;;13.70;99.90;;;;;;5004551;28;20053;-77
2023/09/02 01:44:19;;;;;;;6.07;2.80;;;13.70;99.90;;;;;;5004991;28;20073;-78
2023/09/02 01:46:46;;;;;;;3.40;2.63;;;13.60;99.90;;;;;;5014856;28;20137;-79
2023/09/02 01:49:13;;;;;;;5.90;3.00;;;13.60;99.90;;;;;;5006366;28;20136;-79
2023/09/02 01:51:40;;;;;;;4.75;3.03;;;13.70;99.90;;;;;;5005391;28;20045;-79
2023/09/02 01:54:06;;;;;;;8.13;3.30;;;13.60;99.90;;;;;;5016607;28;20120;-79
2023/09/02 01:56:33;;;;;;;4.88;3.00;;;13.70;99.90;;;;;;5005344;28;20121;-80
2023/09/02 01:58:59;;;;;;;5.18;2.80;;;13.70;99.90;;;;;;5006013;28;20050;-80
2023/09/02 02:01:25;;;;;;;6.50;2.60;;;13.60;99.90;;;;;;5006691;28;20041;-80
2023/09/02 02:04:16;;;;;;;5.30;3.00;;;13.60;99.90;;;;;;5006440;28;20126;-80
2023/09/02 02:06:43;;;;;;;6.20;3.05;;;13.60;99.90;;;;;;5005130;28;20052;-80
2023/09/02 02:09:26;;;;;;;6.35;2.25;;;13.50;99.90;;;;;;5006170;28;20088;-79
2023/09/02 02:11:54;;;;;;;6.28;3.13;;;13.50;99.90;;;;;;5019214;28;20061;-80
2023/09/02 02:14:19;;;;;;;5.68;2.50;;;13.50;99.90;;;;;;5025837;28;20108;-79
2023/09/02 02:16:45;;;;;;;4.40;2.55;;;13.50;99.90;;;;;;5026270;28;20037;-79
2023/09/02 02:19:11;;;;;;;5.75;3.40;;;13.50;99.90;;;;;;5010926;28;20400;-79
2023/09/02 02:21:37;;;;;;;5.00;2.80;;;13.50;99.90;;;;;;5006741;28;20045;-79
2023/09/02 02:24:03;;;;;;;7.07;3.53;;;13.50;99.90;;;;;;5005740;28;20396;-77
2023/09/02 02:26:28;;;;;;;5.45;3.38;;;13.50;99.90;;;;;;5003948;28;20495;-78
2023/09/02 02:28:54;;;;;;;5.22;2.67;;;13.50;99.90;;;;;;5004927;28;20056;-79
2023/09/02 02:31:19;;;;;;;6.75;3.63;;;13.40;99.90;;;;;;5005926;28;20054;-78
2023/09/02 02:33:45;;;;;;;6.30;3.75;;;13.50;99.90;;;;;;5004934;28;20050;-79
2023/09/02 02:36:11;;;;;;;5.15;3.10;;;13.40;99.90;;;;;;5004651;28;20057;-79
2023/09/02 02:38:36;;;;;;;4.30;2.85;;;13.40;99.90;;;;;;4988636;28;20404;-77
2023/09/02 02:41:02;;;;;;;6.68;3.20;;;13.40;99.90;;;;;;5004944;28;20137;-77
2023/09/02 02:43:28;;;;;;;5.88;2.80;;;13.40;99.90;;;;;;5003576;28;20518;-78
2023/09/02 02:45:54;;;;;;;7.32;2.58;;;13.40;99.90;;;;;;5004224;28;20049;-78
2023/09/02 02:48:27;;;;;;;6.75;3.20;;;13.50;99.90;;;;;;5008619;28;20037;-79
2023/09/02 02:50:52;;;;;;;4.10;2.67;;;13.40;99.90;;;;;;5007378;28;20053;-79
2023/09/02 02:53:18;;;;;;;6.40;3.28;;;13.40;99.90;;;;;;5025159;28;20507;-79
2023/09/02 02:55:44;;;;;;;8.38;3.03;;;13.40;99.90;;;;;;5023317;28;20038;-79
2023/09/02 02:58:12;;;;;;;7.03;3.05;;;13.40;99.90;;;;;;5023612;28;20056;-80
2023/09/02 03:00:39;;;;;;;5.13;2.90;;;13.40;99.90;;;;;;5028411;28;20052;-78
2023/09/02 03:03:05;;;;;;;4.80;2.80;;;13.40;99.90;;;;;;5005225;28;20053;-78
2023/09/02 03:05:36;;;;;;;7.45;3.22;;;13.40;99.90;;;;;;5004473;28;20038;-79
2023/09/02 03:08:02;;;;;;;3.37;2.60;;;13.30;99.90;;;;;;5004478;28;20459;-78
2023/09/02 03:10:27;;;;;;;5.85;3.05;;;13.30;99.90;;;;;;4986392;28;20149;-80
2023/09/02 03:12:53;;;;;;;5.45;3.45;;;13.30;99.90;;;;;;5003904;28;20093;-79
2023/09/02 03:15:19;;;;;;;5.85;2.75;;;13.30;99.90;;;;;;5005168;28;20081;-78
2023/09/02 03:17:44;;;;;;;5.68;3.17;;;13.30;99.90;;;;;;5023186;28;20410;-79
2023/09/02 03:20:10;;;;;;;4.72;2.88;;;13.30;99.90;;;;;;5023192;28;20053;-80
2023/09/02 03:22:40;;;;;;;5.70;2.70;;;13.30;99.90;;;;;;5014457;28;20069;-79
2023/09/02 03:25:06;;;;;;;5.13;2.97;;;13.30;99.90;;;;;;5002953;28;20049;-79
2023/09/02 03:27:31;;;;;;;5.75;3.15;;;13.30;99.90;;;;;;5004265;28;20042;-79
2023/09/02 03:29:57;;;;;;;5.80;3.33;;;13.30;99.90;;;;;;5004074;28;20119;-79
2023/09/02 03:32:26;;;;;;;6.55;3.45;;;13.30;99.90;;;;;;5004810;28;20121;-76
2023/09/02 03:34:51;;;;;;;4.60;3.45;;;13.30;99.90;;;;;;5004556;28;20049;-77
2023/09/02 03:37:17;;;;;;;4.75;2.72;;;13.30;99.90;;;;;;5002999;28;20103;-78
2023/09/02 03:39:42;;;;;;;6.40;2.83;;;13.30;99.90;;;;;;5004965;28;20124;-76
2023/09/02 03:42:11;;;;;;;7.93;3.25;;;13.30;99.90;;;;;;5002418;28;20067;-78
2023/09/02 03:44:37;;;;;;;6.15;3.25;;;13.30;99.90;;;;;;5005448;28;20052;-79
2023/09/02 03:47:03;;;;;;;5.82;3.13;;;13.30;99.90;;;;;;5011982;28;20425;-79
2023/09/02 03:49:28;;;;;;;5.53;2.88;;;13.30;99.90;;;;;;5004136;28;20092;-79
2023/09/02 03:51:54;;;;;;;6.70;3.17;;;13.30;99.90;;;;;;5004590;28;20037;-79
2023/09/02 03:54:20;;;;;;;8.77;3.40;;;13.30;99.90;;;;;;5002389;28;20060;-76
2023/09/02 03:56:46;;;;;;;5.32;3.13;;;13.30;99.90;;;;;;5001879;28;20145;-80
2023/09/02 03:59:11;;;;;;;7.60;3.28;;;13.30;99.90;;;;;;5004297;28;20536;-80
2023/09/02 04:01:37;;;;;;;5.47;2.85;;;13.30;99.90;;;;;;5020007;28;20045;-77
2023/09/02 04:04:03;;;;;;;6.43;3.63;;;13.30;99.90;;;;;;5004709;28;20049;-79
2023/09/02 04:06:29;;;;;;;7.53;3.75;;;13.30;99.90;;;;;;5002473;28;20056;-80
2023/09/02 04:08:55;;;;;;;6.75;2.80;;;13.30;99.90;;;;;;5003092;28;20046;-80
2023/09/02 04:11:23;;;;;;;6.40;3.15;;;13.30;99.90;;;;;;5002982;28;20054;-79
2023/09/02 04:13:48;;;;;;;4.50;2.55;;;13.20;99.90;;;;;;5004393;28;20084;-78
2023/09/02 04:16:14;;;;;;;3.53;2.38;;;13.20;99.90;;;;;;5004059;28;20078;-78
2023/09/02 04:18:40;;;;;;;6.03;3.17;;;13.20;99.90;;;;;;5004218;28;20052;-77
2023/09/02 04:21:08;;;;;;;5.28;2.97;;;13.20;99.90;;;;;;5002929;28;20055;-76
2023/09/02 04:23:34;;;;;;;4.97;3.05;;;13.10;99.90;;;;;;5004552;28;20038;-76
2023/09/02 04:26:01;;;;;;;5.85;3.25;;;13.10;99.90;;;;;;5001086;28;20052;-79
2023/09/02 04:28:27;;;;;;;6.93;3.42;;;13.10;99.90;;;;;;5004632;28;20041;-78
2023/09/02 04:30:57;;;;;;;5.72;2.63;;;13.10;99.90;;;;;;4986384;28;20503;-80
2023/09/02 04:33:24;;;;;;;4.00;2.78;;;13.10;99.90;;;;;;5003671;28;20125;-78
2023/09/02 04:35:50;;;;;;;8.25;3.67;;;13.10;99.90;;;;;;5015427;28;20528;-79
2023/09/02 04:38:15;;;;;;;5.35;2.97;;;13.10;99.90;;;;;;5003645;28;20048;-79
2023/09/02 04:40:43;;;;;;;5.82;2.70;;;13.10;99.90;;;;;;5001915;28;20056;-79
2023/09/02 04:43:10;;;;;;;6.35;3.60;;;13.10;99.90;;;;;;5003875;28;20041;-77
2023/09/02 04:45:37;;;;;;;5.45;2.97;;;13.10;99.90;;;;;;5004365;28;20053;-78
2023/09/02 04:48:03;;;;;;;3.88;2.25;;;13.10;99.90;;;;;;5002312;28;20069;-79
2023/09/02 04:50:30;;;;;;;7.18;4.43;;;13.10;99.90;;;;;;5003811;28;20050;-79
2023/09/02 04:52:57;;;;;;;4.90;2.55;;;13.00;99.90;;;;;;5003916;28;20066;-80
2023/09/02 04:55:24;;;;;;;7.05;3.45;;;13.00;99.90;;;;;;4985448;28;20512;-80
2023/09/02 04:57:51;;;;;;;6.35;3.22;;;13.00;99.90;;;;;;5003820;28;20101;-80
2023/09/02 05:00:18;;;;;;;5.35;3.03;;;13.00;99.90;;;;;;5003976;28;20037;-80
2023/09/02 05:02:44;;;;;;;4.93;2.85;;;13.00;99.90;;;;;;5002074;28;20050;-79
2023/09/02 05:05:10;;;;;;;5.72;3.00;;;13.00;99.90;;;;;;5001977;28;20061;-78
2023/09/02 05:07:36;;;;;;;6.93;3.47;;;13.00;99.90;;;;;;5005480;28;20046;-77
2023/09/02 05:10:02;;;;;;;6.15;2.78;;;13.00;99.90;;;;;;5007867;28;20064;-77
2023/09/02 05:12:28;;;;;;;6.50;3.85;;;13.00;99.90;;;;;;5004112;28;20196;-77
2023/09/02 05:14:53;;;;;;;6.93;3.15;;;13.00;99.90;;;;;;4973769;28;20391;-77
2023/09/02 05:17:19;;;;;;;8.25;3.45;;;13.00;99.90;;;;;;5020373;28;20514;-78
2023/09/02 05:19:44;;;;;;;7.70;4.05;;;13.00;99.90;;;;;;4992987;28;20065;-77
2023/09/02 05:22:10;;;;;;;7.22;3.67;;;13.10;99.90;;;;;;5016864;28;20104;-77
2023/09/02 05:24:36;;;;;;;6.38;3.40;;;13.10;99.90;;;;;;4981141;28;20065;-77
2023/09/02 05:27:01;;;;;;;6.53;3.40;;;13.10;99.90;;;;;;4997837;28;20050;-79
2023/09/02 05:29:27;;;;;;;4.93;2.88;;;13.10;99.90;;;;;;5013562;28;20042;-77
2023/09/02 05:31:53;;;;;;;7.13;3.00;;;13.10;99.90;;;;;;5008411;28;20120;-78
2023/09/02 05:34:18;;;;;;;4.93;3.05;;;13.10;99.90;;;;;;4990541;28;20052;-79
2023/09/02 05:36:44;;;;;;;5.55;3.13;;;13.10;99.90;;;;;;5021802;28;20045;-80
2023/09/02 05:39:10;;;;;;;5.53;3.20;;;13.10;99.90;;;;;;5004056;28;20041;-79
2023/09/02 05:41:36;;;;;;;6.07;3.70;;;13.10;99.90;;;;;;5025750;28;20049;-80
2023/09/02 05:44:01;;;;;;;6.65;3.53;;;13.10;99.90;;;;;;5017314;28;20042;-79
2023/09/02 05:46:27;;;;;;;6.90;3.55;;;13.10;99.90;;;;;;4993919;28;20056;-80
2023/09/02 05:48:53;;;;;;;5.05;3.17;;;13.10;99.90;;;;;;4994660;28;20038;-80
2023/09/02 05:51:18;;;;;;;10.30;3.85;;;13.10;99.90;;;;;;5022634;28;20038;-80
2023/09/02 05:53:46;;;;;;;5.60;3.47;;;13.10;99.90;;;;;;4989343;28;20041;-79
2023/09/02 05:56:12;;;;;;;7.80;3.35;;;13.20;99.90;;;;;;4987560;28;20061;-79
2023/09/02 05:58:38;;;;;;;7.75;3.67;;;13.20;99.90;;;;;;5013680;28;20071;-76
2023/09/02 06:01:04;;;;;;;5.43;3.20;;;13.30;99.90;;;;;;5026042;28;20053;-80
2023/09/02 06:03:30;;;;;;;8.82;3.90;;;13.30;99.90;;;;;;5017214;28;20040;-76
2023/09/02 06:05:56;;;;;;;7.25;3.53;;;13.40;99.90;;;;;;5004885;28;20467;-79
2023/09/02 06:08:21;;;;;;;5.93;4.07;;;13.40;99.90;;;;;;5019453;28;20133;-79
2023/09/02 06:10:56;;;;;;;11.35;4.93;;;13.40;99.90;;;;;;5010877;28;20136;-79
2023/09/02 06:13:22;;;;;;;7.43;3.72;;;13.50;99.90;;;;;;5016355;28;20042;-80
2023/09/02 06:15:48;;;;;;;8.45;3.67;;;13.50;99.90;;;;;;5004805;28;20044;-76
2023/09/02 06:18:13;;;;;;;8.60;4.72;;;13.50;99.90;;;;;;5005034;28;20508;-80
2023/09/02 06:20:39;;;;;;;5.50;3.15;;;13.60;99.90;;;;;;5006382;28;20092;-79
2023/09/02 06:23:04;;;;;;;8.85;3.50;;;13.60;99.90;;;;;;4990502;28;20042;-77
2023/09/02 06:25:30;;;;;;;5.68;4.13;;;13.70;99.90;;;;;;5015720;28;20104;-79
2023/09/02 06:27:55;;;;;;;8.73;3.42;;;13.70;99.90;;;;;;5005916;28;20038;-80
2023/09/02 06:30:21;;;;;;;6.80;3.72;;;13.70;99.90;;;;;;5006065;28;20049;-76
2023/09/02 06:32:47;;;;;;;8.10;3.92;;;13.80;99.90;;;;;;4992034;28;20041;-79
2023/09/02 06:35:15;;;;;;;8.52;3.92;;;13.80;99.90;;;;;;4996202;28;20507;-80
2023/09/02 06:37:41;;;;;;;6.93;4.20;;;13.80;99.90;;;;;;5007206;28;20416;-79
2023/09/02 06:40:07;;;;;;;8.70;3.78;;;13.90;99.90;;;;;;5004554;28;20049;-79
2023/09/02 06:42:33;;;;;;;9.02;4.70;;;13.90;99.90;;;;;;5015816;28;20484;-77
2023/09/02 06:44:58;;;;;;;8.45;3.80;;;13.90;99.90;;;;;;5005603;28;20525;-78
2023/09/02 06:47:27;;;;;;;5.57;3.53;;;13.90;99.90;;;;;;5005198;28;20057;-78
2023/09/02 06:49:52;;;;;;;6.15;3.78;;;14.00;99.90;;;;;;5004659;28;20034;-78
2023/09/02 06:52:18;;;;;;;12.18;4.63;;;14.00;99.90;;;;;;5003810;28;20042;-79
2023/09/02 06:54:48;;;;;;;4.90;3.40;;;14.10;99.90;;;;;;5003221;28;20042;-79
2023/09/02 06:57:14;;;;;;;7.55;3.55;;;14.10;99.90;;;;;;5005277;28;20057;-80
2023/09/02 06:59:39;;;;;;;7.70;4.18;;;14.10;99.90;;;;;;5005623;28;20050;-80
2023/09/02 07:02:05;;;;;;;10.65;4.22;;;14.20;99.90;;;;;;5005327;28;20126;-79
2023/09/02 07:04:31;;;;;;;8.23;3.58;;;14.30;99.90;;;;;;5004967;28;20038;-80
2023/09/02 07:06:57;;;;;;;6.95;4.50;;;14.20;99.90;;;;;;5005252;28;20045;-80
2023/09/02 07:09:22;;;;;;;7.07;4.03;;;14.30;99.90;;;;;;5004810;28;20049;-79
2023/09/02 07:11:48;;;;;;;7.30;3.45;;;14.40;99.90;;;;;;5005495;28;20096;-80
2023/09/02 07:14:14;;;;;;;7.57;3.70;;;14.40;99.90;;;;;;5004703;28;20168;-80
2023/09/02 07:16:39;;;;;;;6.75;4.03;;;14.40;99.90;;;;;;5007568;28;20389;-80
2023/09/02 07:19:05;;;;;;;6.38;4.35;;;14.50;99.90;;;;;;5005962;28;20046;-80
2023/09/02 07:21:30;;;;;;;7.13;4.47;;;14.50;99.90;;;;;;5004814;28;20033;-79
2023/09/02 07:23:56;;;;;;;9.23;4.32;;;14.50;99.90;;;;;;5018802;28;20040;-80
2023/09/02 07:26:23;;;;;;;10.23;4.20;;;14.60;99.90;;;;;;5003951;28;20045;-79
2023/09/02 07:28:49;;;;;;;5.93;4.07;;;14.60;99.90;;;;;;5005210;28;20077;-79
2023/09/02 07:31:15;;;;;;;7.15;4.25;;;14.60;99.90;;;;;;5004683;28;20167;-78
2023/09/02 07:33:41;;;;;;;9.55;5.03;;;14.70;99.90;;;;;;5004910;28;20117;-77
2023/09/02 07:36:11;;;;;;;8.30;4.53;;;14.70;99.90;;;;;;5005081;28;20081;-77
2023/09/02 07:38:38;;;;;;;7.10;4.45;;;14.70;99.90;;;;;;5005333;28;20069;-79
2023/09/02 07:41:04;;;;;;;8.00;4.03;;;14.80;99.90;;;;;;5002979;28;20104;-79
2023/09/02 07:43:29;;;;;;;6.95;3.95;;;14.90;99.90;;;;;;5011291;28;20038;-81
2023/09/02 07:45:55;;;;;;;7.03;4.25;;;14.90;99.90;;;;;;5005442;28;20053;-80
2023/09/02 07:48:21;;;;;;;9.38;4.93;;;15.00;99.90;;;;;;5003629;28;20038;-80
2023/09/02 07:50:47;;;;;;;5.75;3.58;;;15.00;99.90;;;;;;5003074;28;20080;-80
2023/09/02 07:53:13;;;;;;;6.38;3.78;;;15.10;99.90;;;;;;5003043;28;20045;-80
2023/09/02 07:55:39;;;;;;;7.97;4.38;;;15.10;99.90;;;;;;5014095;28;20049;-79
2023/09/02 07:58:05;;;;;;;7.65;3.92;;;15.20;99.90;;;;;;5020170;28;20045;-79
2023/09/02 08:00:35;;;;;;;6.35;3.97;;;15.20;99.90;;;;;;5005984;28;20034;-80
2023/09/02 08:03:02;;;;;;;7.07;3.67;;;15.30;99.90;;;;;;5003714;28;20113;-77
2023/09/02 08:05:28;;;;;;;6.05;3.60;;;15.30;99.90;;;;;;5005769;28;20049;-79
2023/09/02 08:07:54;;;;;;;5.18;3.53;;;15.40;99.90;;;;;;5014038;28;20069;-77
2023/09/02 08:10:19;;;;;;;5.10;3.25;;;15.30;99.90;;;;;;5006821;28;20259;-79
2023/09/02 08:12:46;;;;;;;5.18;2.42;;;15.40;99.90;;;;;;4999383;28;20034;-79
2023/09/02 08:15:12;;;;;;;4.97;3.03;;;15.50;99.90;;;;;;5007249;28;20557;-80
2023/09/02 08:17:39;;;;;;;5.90;2.72;;;15.50;99.90;;;;;;5020959;28;20077;-77
2023/09/02 08:20:06;;;;;;;6.28;3.03;;;15.50;99.90;;;;;;5023211;28;20045;-79
2023/09/02 08:22:31;;;;;;;4.70;2.85;;;15.60;99.90;;;;;;5021327;28;20041;-80
2023/09/02 08:24:57;;;;;;;5.22;2.30;;;15.60;99.90;;;;;;5006995;28;20485;-79
2023/09/02 08:27:24;;;;;;;5.63;3.45;;;15.60;99.90;;;;;;5014879;28;20037;-79
2023/09/02 08:29:51;;;;;;;4.00;2.10;;;15.70;99.90;;;;;;5003312;28;20122;-79
2023/09/02 08:32:17;;;;;;;1.75;1.50;;;15.70;99.90;;;;;;5003135;28;20053;-79
2023/09/02 08:34:42;;;;;;;2.33;1.73;;;15.80;99.90;;;;;;5002276;28;20038;-78
2023/09/02 08:37:08;;;;;;;4.70;2.20;;;15.80;99.90;;;;;;5003364;28;20453;-78
2023/09/02 08:39:34;;;;;;;3.80;2.05;;;15.90;99.90;;;;;;5002600;28;20514;-78
2023/09/02 08:42:00;;;;;;;4.72;2.08;;;15.90;99.90;;;;;;5002938;28;20056;-77
2023/09/02 08:44:35;;;;;;;2.05;1.40;;;16.00;99.90;;;;;;5002021;28;20038;-78
2023/09/02 08:47:04;;;;;;;2.28;1.25;;;16.00;99.90;;;;;;5002003;28;20046;-79
2023/09/02 08:49:31;;;;;;;4.07;1.48;;;16.10;99.90;;;;;;5003098;28;20397;-79
2023/09/02 08:51:58;;;;;;;3.53;1.98;;;16.10;99.90;;;;;;5003302;28;20140;-78
2023/09/02 08:54:25;;;;;;;4.03;1.90;;;16.10;99.90;;;;;;5003006;28;20073;-79
2023/09/02 08:56:52;;;;;;;2.95;1.98;;;16.20;99.90;;;;;;5002564;28;20038;-78
2023/09/02 08:59:18;;;;;;;2.25;1.70;;;16.10;99.90;;;;;;4986107;28;20050;-79
2023/09/02 09:01:45;;;;;;;3.22;1.92;;;16.20;99.90;;;;;;5004782;28;20050;-80
2023/09/02 09:04:15;;;;;;;3.28;1.45;;;16.20;99.90;;;;;;5003639;28;20046;-79
2023/09/02 09:06:41;;;;;;;3.38;2.10;;;16.20;99.90;;;;;;5001559;28;20049;-79
2023/09/02 09:09:11;;;;;;;4.18;2.13;;;16.30;99.90;;;;;;5004266;28;20117;-79
2023/09/02 09:11:41;;;;;;;5.93;1.88;;;16.30;99.90;;;;;;5014194;28;20050;-76
2023/09/02 09:14:23;;;;;;;3.95;2.58;;;16.30;99.90;;;;;;5000811;28;20038;-79
2023/09/02 09:16:54;;;;;;;2.53;1.30;;;16.40;99.90;;;;;;5002310;28;20281;-79
2023/09/02 09:19:22;;;;;;;2.22;1.48;;;16.40;99.90;;;;;;5017257;28;20074;-80
2023/09/02 09:21:47;;;;;;;3.10;1.63;;;16.40;99.90;;;;;;4990017;28;20133;-80
2023/09/02 09:24:13;;;;;;;4.05;2.40;;;16.50;99.90;;;;;;5008495;28;20125;-78
2023/09/02 09:26:43;;;;;;;2.90;1.55;;;16.50;99.90;;;;;;5018170;28;20080;-77
2023/09/02 09:29:16;;;;;;;5.68;2.00;;;16.60;99.90;;;;;;5002465;28;20042;-77
2023/09/02 09:31:42;;;;;;;2.80;1.90;;;16.60;99.90;;;;;;5011667;28;20046;-79
2023/09/02 09:34:09;;;;;;;2.60;1.60;;;16.70;99.90;;;;;;5002327;28;20444;-78
2023/09/02 09:36:35;;;;;;;2.22;1.60;;;16.70;99.90;;;;;;5006568;28;20046;-78
2023/09/02 09:39:06;;;;;;;2.50;1.60;;;16.70;99.90;;;;;;5002228;28;20085;-79
2023/09/02 09:41:32;;;;;;;3.13;2.58;;;16.80;99.90;;;;;;5003218;28;20045;-79
2023/09/02 09:44:14;;;;;;;3.47;1.50;;;16.80;99.90;;;;;;5004141;28;20122;-79
2023/09/02 09:46:43;;;;;;;;;;;16.80;99.90;;;;;;4992164;28;20041;-77
2023/09/02 09:49:18;;;;;;;3.58;2.08;;;16.90;99.90;;;;;;5006229;28;19921;-77
2023/09/02 09:51:43;;;;;;;4.15;2.40;;;16.90;99.90;;;;;;4991861;28;20485;-79
2023/09/02 09:54:09;;;;;;;4.72;2.20;;;16.90;99.90;;;;;;5005091;28;20125;-77
2023/09/02 09:56:42;;;;;;;2.45;2.20;;;16.90;99.90;;;;;;5014019;28;20062;-79
2023/09/02 09:59:10;;;;;;;2.67;2.00;;;16.90;99.90;;;;;;5018363;28;20046;-78
2023/09/02 10:01:39;;;;;;;2.90;1.90;;;17.00;99.90;;;;;;5011301;28;20103;-80
2023/09/02 10:04:08;;;;;;;3.58;2.00;;;17.00;99.90;;;;;;5024389;28;20057;-78
2023/09/02 10:06:39;;;;;;;2.67;1.77;;;17.10;99.90;;;;;;5011302;28;20033;-79
2023/09/02 10:09:05;;;;;;;3.65;2.00;;;17.10;99.90;;;;;;5013658;28;20045;-79
2023/09/02 10:11:31;;;;;;;3.90;2.50;;;17.20;99.90;;;;;;4997519;28;20058;-80
2023/09/02 10:13:59;;;;;;;4.05;1.90;;;17.30;99.90;;;;;;5001472;28;20048;-79
2023/09/02 10:16:25;;;;;;;4.53;2.22;;;17.30;99.90;;;;;;5004979;28;20492;-80
2023/09/02 10:18:51;;;;;;;5.07;2.15;;;17.40;99.90;;;;;;4986938;28;20062;-76
2023/09/02 10:21:19;;;;;;;4.28;2.20;;;17.50;99.90;;;;;;5002330;28;20053;-79
2023/09/02 10:23:49;;;;;;;14.27;2.42;;;17.60;99.90;;;;;;5006567;28;20046;-80
2023/09/02 10:26:31;;;;;;;5.07;2.13;;;17.60;99.90;;;;;;5004729;28;20708;-77
2023/09/02 10:29:02;;;;;;;3.50;2.05;;;17.60;99.90;;;;;;5006259;28;20046;-77
2023/09/02 10:31:35;;;;;;;6.28;2.10;;;17.60;99.90;;;;;;5005870;28;20054;-78
2023/09/02 10:34:09;;;;;;;4.68;2.08;;;17.60;99.90;;;;;;4986369;28;20100;-79
2023/09/02 10:36:40;;;;;;;3.28;2.10;;;17.60;99.90;;;;;;4986938;28;20130;-80
2023/09/02 10:39:12;;;;;;;3.35;2.10;;;17.60;99.90;;;;;;4986133;28;20593;-79
2023/09/02 10:41:38;;;;;;;2.97;2.30;;;17.60;99.90;;;;;;5002406;28;20104;-78
2023/09/02 10:44:04;;;;;;;4.55;2.50;;;17.70;99.90;;;;;;5022422;28;20091;-77
2023/09/02 10:46:31;;;;;;;3.75;2.58;;;17.70;99.90;;;;;;5015612;28;20046;-78
2023/09/02 10:48:58;;;;;;;5.47;2.33;;;17.80;99.90;;;;;;5004197;28;20034;-80
2023/09/02 10:51:24;;;;;;;5.03;2.63;;;17.80;99.90;;;;;;5005599;28;20042;-79
2023/09/02 10:53:52;;;;;;;3.92;2.65;;;17.80;99.90;;;;;;5003669;28;20161;-80
2023/09/02 10:56:27;;;;;;;3.88;2.05;;;17.80;99.90;;;;;;4978305;28;20046;-80
2023/09/02 10:58:54;;;;;;;5.07;2.25;;;17.80;99.90;;;;;;5002156;28;20046;-77
2023/09/02 11:01:20;;;;;;;3.00;2.17;;;17.80;99.90;;;;;;4996902;28;20054;-80
2023/09/02 11:03:49;;;;;;;3.38;1.70;;;17.90;99.90;;;;;;5004007;28;20492;-79
2023/09/02 11:06:16;;;;;;;3.97;2.03;;;17.90;99.90;;;;;;4997593;28;20045;-80
2023/09/02 11:08:50;;;;;;;3.72;1.70;;;17.90;99.90;;;;;;5005747;28;20038;-80
2023/09/02 11:11:17;;;;;;;2.53;1.65;;;17.90;99.90;;;;;;5001628;28;20054;-77
2023/09/02 11:14:07;;;;;;;3.42;1.60;;;18.00;99.90;;;;;;5004201;28;20108;-79
2023/09/02 11:16:38;;;;;;;2.65;1.85;;;18.00;99.90;;;;;;4986488;28;20042;-78
2023/09/02 11:19:08;;;;;;;3.40;2.10;;;18.00;99.90;;;;;;4991188;28;20070;-78
2023/09/02 11:21:46;;;;;;;3.45;2.38;;;18.00;99.90;;;;;;4992085;28;20037;-78
2023/09/02 11:24:16;;;;;;;2.90;1.30;;;18.10;99.90;;;;;;5003089;28;20054;-80
2023/09/02 11:27:02;;;;;;;3.40;1.52;;;18.10;99.90;;;;;;4994708;28;20089;-79
2023/09/02 11:29:30;;;;;;;2.25;1.60;;;18.10;99.90;;;;;;4999056;28;20113;-79
2023/09/02 11:32:03;;;;;;;2.92;1.73;;;18.10;99.90;;;;;;5004937;28;20104;-79
2023/09/02 11:34:30;;;;;;;3.90;1.27;;;18.10;99.90;;;;;;5001464;28;20053;-77
2023/09/02 11:36:57;;;;;;;1.10;1.00;;;18.10;99.90;;;;;;5005020;28;20065;-80
2023/09/02 11:39:26;;;;;;;2.38;1.23;;;18.10;99.90;;;;;;5003688;28;20091;-78
2023/09/02 11:42:11;;;;;;;1.90;1.02;;;18.10;99.90;;;;;;5006065;28;20046;-79
2023/09/02 11:44:38;;;;;;;3.58;1.33;;;18.10;99.90;;;;;;5008314;28;20050;-80
2023/09/02 11:47:04;;;;;;;1.83;1.10;;;18.10;99.90;;;;;;5012015;28;20054;-78
2023/09/02 11:49:30;;;;;;;2.17;1.42;;;18.10;99.90;;;;;;5002031;28;20507;-79
2023/09/02 11:51:57;;;;;;;1.20;1.10;;;18.10;99.90;;;;;;5003557;28;20041;-77
2023/09/02 11:54:22;;;;;;;2.05;1.02;;;18.20;99.90;;;;;;5000754;28;20695;-77
2023/09/02 11:57:00;;;;;;;1.90;1.10;;;18.20;99.90;;;;;;5003585;28;20341;-78
2023/09/02 11:59:26;;;;;;;1.52;0.98;;;18.30;99.90;;;;;;5000361;28;20046;-77
2023/09/02 12:02:12;;;;;;;2.20;1.05;;;18.30;99.90;;;;;;5001663;28;20062;-77
2023/09/02 12:04:44;;;;;;;2.80;1.05;;;18.40;99.90;;;;;;5001546;28;20037;-77
2023/09/02 12:07:10;;;;;;;2.67;0.70;;;18.40;99.90;;;;;;5000958;28;20191;-77
2023/09/02 12:09:36;;;;;;;1.00;0.80;;;18.40;99.90;;;;;;5000177;28;20129;-77
2023/09/02 12:12:03;;;;;;;1.30;1.02;;;18.40;99.90;;;;;;4982461;28;20065;-77
2023/09/02 12:14:29;;;;;;;1.05;0.70;;;18.30;99.90;;;;;;4965667;28;20046;-77
2023/09/02 12:16:56;;;;;;;0.73;0.70;;;18.30;99.90;;;;;;4982150;28;20509;-77
2023/09/02 12:19:22;;;;;;;2.40;0.95;;;18.30;99.90;;;;;;4983043;28;20054;-77
2023/09/02 12:21:48;;;;;;;1.40;0.90;;;18.30;99.90;;;;;;4983286;28;20038;-78
2023/09/02 12:24:14;;;;;;;2.13;0.75;;;18.40;99.90;;;;;;4982418;28;20572;-78
2023/09/02 12:26:47;;;;;;;2.40;0.90;;;18.40;99.90;;;;;;4966648;28;20050;-77
2023/09/02 12:29:21;;;;;;;0.73;0.63;;;18.40;99.90;;;;;;4982169;28;20042;-78
2023/09/02 12:31:50;;;;;;;0.77;0.70;;;18.40;99.90;;;;;;4982062;28;20489;-78
2023/09/02 12:34:16;;;;;;;0.52;0.50;;;18.40;99.90;;;;;;4981859;28;20049;-74
2023/09/02 12:36:42;;;;;;;1.45;0.50;;;18.50;99.90;;;;;;4964896;28;20042;-74
2023/09/02 12:39:20;;;;;;;0.70;0.40;;;18.50;99.90;;;;;;4964272;28;20053;-75
2023/09/02 12:41:46;;;;;;;1.05;0.90;;;18.50;99.90;;;;;;4982582;28;20043;-74
2023/09/02 12:44:12;;;;;;;2.53;0.98;;;18.50;99.90;;;;;;4981645;28;20305;-75
2023/09/02 12:46:38;;;;;;;0.68;0.60;;;18.50;99.90;;;;;;4982334;28;20683;-76
2023/09/02 12:49:04;;;;;;;4.80;1.70;;;18.50;99.90;;;;;;4982219;28;20038;-74